This is the latest recevied weather packets stored in our database for station/object K7ZQU-7. If no packets are shown the sender has not sent any weather packets the latest 10 day(s).
| Time | Temp. | Humidity | Pressure | Rain* | Wind** | Luminosity | Snow |
|---|---|---|---|---|---|---|---|
| 1777568310 | 11.11° C | 55% | 1018.5 hPa | 0 mm | 2.24 m/s, 101° | - | - |
| 1777568011 | 11.11° C | 55% | 1018.4 hPa | 0 mm | 1.34 m/s, 68° | - | - |
| 1777567709 | 10.56° C | 56% | 1018.5 hPa | 0 mm | 0.89 m/s, 55° | - | - |
| 1777567409 | 10.56° C | 56% | 1018.5 hPa | 0 mm | 2.24 m/s, 146° | - | - |
| 1777567110 | 10.56° C | 57% | 1018.4 hPa | 0 mm | 1.79 m/s, 27° | - | - |
| 1777566811 | 10.56° C | 57% | 1018.5 hPa | 0 mm | 1.79 m/s, 49° | - | - |
| 1777565911 | 10° C | 58% | 1018.4 hPa | 0 mm | 1.34 m/s, 122° | - | - |
| 1777565612 | 10° C | 59% | 1018.4 hPa | 0 mm | 2.24 m/s, 110° | - | - |
| 1777565013 | 10° C | 60% | 1018.4 hPa | 0 mm | 0.89 m/s, 114° | - | - |
| 1777564711 | 9.44° C | 60% | 1018.4 hPa | 0 mm | 1.79 m/s, 127° | - | - |
| 1777564412 | 9.44° C | 60% | 1018.4 hPa | 0 mm | 1.34 m/s, 108° | - | - |
| 1777564113 | 9.44° C | 61% | 1018.4 hPa | 0 mm | 0.89 m/s, 194° | - | - |
| 1777563814 | 8.89° C | 62% | 1018.3 hPa | 0 mm | 0.45 m/s, 188° | - | - |
| 1777563212 | 8.89° C | 61% | 1018.3 hPa | 0 mm | 2.24 m/s, 156° | - | - |
| 1777562913 | 8.89° C | 62% | 1018.3 hPa | 0 mm | 1.34 m/s, 198° | - | - |
| 1777562614 | 8.33° C | 62% | 1018.3 hPa | 0 mm | 0.89 m/s, 186° | - | - |
| 1777562315 | 8.33° C | 62% | 1018.3 hPa | 0 mm | 1.79 m/s, 84° | - | - |
| 1777562016 | 8.33° C | 63% | 1018.2 hPa | 0 mm | 0.89 m/s, 114° | - | - |
| 1777561714 | 8.33° C | 62% | 1018.3 hPa | 0 mm | 2.68 m/s, 169° | - | - |
| 1777561115 | 7.78° C | 64% | 1018.2 hPa | 0 mm | 0.89 m/s, 163° | - | - |
| 1777560816 | 7.78° C | 63% | 1018.2 hPa | 0 mm | 2.24 m/s, 110° | - | - |
| 1777560215 | 7.22° C | 64% | 1018.2 hPa | 0 mm | 1.79 m/s, 162° | - | - |
| 1777559617 | 7.22° C | 66% | 1018.1 hPa | 0 mm | 1.79 m/s, 113° | - | - |
| 1777559318 | 6.67° C | 66% | 1018.1 hPa | 0 mm | 1.79 m/s, 136° | - | - |
| 1777558717 | 6.11° C | 69% | 1017.9 hPa | 0 mm | 0.45 m/s, 131° | - | - |
* Rain latest hour (hover to see other rain measurements)
** Current wind speed in m/s (hover to see current wind gust speed)